Big Bear Station Historical Data
Daily Summary for March 6, 2018 Units:  English    Metric   Both
Next Day »
Daily Weekly Monthly Yearly Custom
  High: Low: Average:
Temperature: 53.6 °F 22.3 °F 34.7 °F
Dew Point: 23.6 °F 7.2 °F 14.2 °F
Humidity: 72% 17% 47%
Wind Speed: 6.8mph 0.0mph 0.8mph
Wind Gust: -999.0mph - -
Wind- - West
Pressure: 23.56 in 23.49 in -
Precipitation: 0.00 in    
Historical Graphs
 
 
Tabular Data for March 6, 2018
Time Temperature Dew Point Pressure Wind Wind Speed Wind Gust Humidity Rainfall Rate (Hourly)
00:13 24.4 °F 9.3 °F 23.53 in Calm   -999.0 mph 52% 0 in
00:28 24.3 °F 10.4 °F 23.53 in Calm   -999.0 mph 55% 0 in
00:43 25.0 °F 8.5 °F 23.52 in Calm   -999.0 mph 49% 0 in
00:59 24.1 °F 7.2 °F 23.53 in Calm   -999.0 mph 48% 0 in
01:14 24.3 °F 10.4 °F 23.53 in Calm   -999.0 mph 55% 0 in
01:29 24.3 °F 12.8 °F 23.53 in Calm   -999.0 mph 61% 0 in
01:44 23.9 °F 10.1 °F 23.53 in Calm   -999.0 mph 55% 0 in
02:00 24.3 °F 9.6 °F 23.53 in Calm   -999.0 mph 53% 0 in
02:15 23.4 °F 8.8 °F 23.52 in Calm   -999.0 mph 53% 0 in
02:30 23.2 °F 8.6 °F 23.52 in Calm   -999.0 mph 53% 0 in
02:46 23.0 °F 10.0 °F 23.52 in Calm   -999.0 mph 57% 0 in
03:01 23.0 °F 9.6 °F 23.51 in Calm   -999.0 mph 56% 0 in
03:17 22.8 °F 9.4 °F 23.51 in Calm   -999.0 mph 56% 0 in
03:32 23.0 °F 13.3 °F 23.51 in Calm   -999.0 mph 66% 0 in
03:48 23.4 °F 11.6 °F 23.51 in Calm   -999.0 mph 60% 0 in
04:03 23.0 °F 13.3 °F 23.52 in Calm   -999.0 mph 66% 0 in
04:18 22.8 °F 13.8 °F 23.52 in Calm   -999.0 mph 68% 0 in
04:33 23.4 °F 11.6 °F 23.52 in Calm   -999.0 mph 60% 0 in
04:49 23.4 °F 11.2 °F 23.52 in Calm   -999.0 mph 59% 0 in
05:04 23.2 °F 10.2 °F 23.52 in Calm   -999.0 mph 57% 0 in
05:19 23.0 °F 10.0 °F 23.52 in Calm   -999.0 mph 57% 0 in
05:34 22.6 °F 12.3 °F 23.52 in Calm   -999.0 mph 64% 0 in
05:49 22.5 °F 11.1 °F 23.52 in Calm   -999.0 mph 61% 0 in
06:05 22.6 °F 11.2 °F 23.52 in Calm   -999.0 mph 61% 0 in
06:20 22.3 °F 11.6 °F 23.53 in Calm   -999.0 mph 63% 0 in
06:36 22.3 °F 14.3 °F 23.53 in Calm   -999.0 mph 71% 0 in
06:51 22.3 °F 13.3 °F 23.54 in Calm   -999.0 mph 68% 0 in
07:06 22.5 °F 12.9 °F 23.54 in Calm   -999.0 mph 66% 0 in
07:21 22.8 °F 12.1 °F 23.54 in Calm   -999.0 mph 63% 0 in
07:36 24.1 °F 13.7 °F 23.54 in Calm   -999.0 mph 64% 0 in
07:52 25.7 °F 16.3 °F 23.54 in Calm   -999.0 mph 67% 0 in
08:07 25.9 °F 14.3 °F 23.54 in Calm   -999.0 mph 61% 0 in
08:22 26.6 °F 13.8 °F 23.55 in Calm   -999.0 mph 58% 0 in
08:37 28.8 °F 10.6 °F 23.55 in Calm   -999.0 mph 46% 0 in
08:52 30.9 °F 12.5 °F 23.55 in Calm   -999.0 mph 46% 0 in
09:08 32.7 °F 10.4 °F 23.55 in Calm   -999.0 mph 39% 0 in
09:23 35.1 °F 11.4 °F 23.54 in Calm   -999.0 mph 37% 0 in
09:39 37.0 °F 14.3 °F 23.54 in Calm   -999.0 mph 39% 0 in
09:54 40.5 °F 14.3 °F 23.54 in NW 2.2 mph -999.0 mph 34% 0 in
10:09 43.0 °F 15.8 °F 23.54 in NNW 3.2 mph -999.0 mph 33% 0 in
10:25 45.1 °F 15.5 °F 23.54 in North 1.7 mph -999.0 mph 30% 0 in
10:40 47.7 °F 10.7 °F 23.54 in NW 3.2 mph -999.0 mph 22% 0 in
10:56 49.5 °F 8.9 °F 23.54 in Calm   -999.0 mph 19% 0 in
11:11 51.6 °F 8.2 °F 23.54 in NNW 4.2 mph -999.0 mph 17% 0 in
11:26 51.4 °F 9.3 °F 23.54 in NNE 2.7 mph -999.0 mph 18% 0 in
11:42 51.6 °F 15.0 °F 23.54 in West 2.7 mph -999.0 mph 23% 0 in
11:57 52.5 °F 14.7 °F 23.53 in NW 2.7 mph -999.0 mph 22% 0 in
12:12 53.2 °F 17.3 °F 23.52 in NW 3.2 mph -999.0 mph 24% 0 in
12:28 52.5 °F 13.6 °F 23.52 in North 3.7 mph -999.0 mph 21% 0 in
12:43 51.8 °F 9.6 °F 23.52 in Calm   -999.0 mph 18% 0 in
12:58 52.3 °F 18.4 °F 23.52 in NNW 4.2 mph -999.0 mph 26% 0 in
13:14 51.8 °F 23.6 °F 23.51 in NNE 2.7 mph -999.0 mph 33% 0 in
13:29 50.9 °F 12.3 °F 23.51 in Calm   -999.0 mph 21% 0 in
13:44 52.0 °F 13.2 °F 23.51 in Calm   -999.0 mph 21% 0 in
13:59 53.6 °F 13.5 °F 23.50 in NNW 4.7 mph -999.0 mph 20% 0 in
14:15 51.3 °F 12.6 °F 23.50 in West 6.8 mph -999.0 mph 21% 0 in
14:30 50.9 °F 12.3 °F 23.50 in ENE 3.2 mph -999.0 mph 21% 0 in
14:45 50.2 °F 11.7 °F 23.50 in SSW 1.1 mph -999.0 mph 21% 0 in
15:01 50.5 °F 21.0 °F 23.50 in NW 3.2 mph -999.0 mph 31% 0 in
15:17 50.2 °F 20.7 °F 23.51 in NW 1.1 mph -999.0 mph 31% 0 in
15:32 49.8 °F 21.1 °F 23.50 in North 2.7 mph -999.0 mph 32% 0 in
15:47 49.1 °F 21.9 °F 23.50 in NW 4.2 mph -999.0 mph 34% 0 in
16:02 48.2 °F 21.8 °F 23.49 in NW 2.2 mph -999.0 mph 35% 0 in
16:18 48.4 °F 19.1 °F 23.50 in NNW 1.7 mph -999.0 mph 31% 0 in
16:33 47.5 °F 19.1 °F 23.50 in NW 2.2 mph -999.0 mph 32% 0 in
16:49 47.3 °F 14.1 °F 23.51 in SW 2.2 mph -999.0 mph 26% 0 in
17:04 46.2 °F 14.9 °F 23.51 in WNW 1.7 mph -999.0 mph 28% 0 in
17:19 45.3 °F 14.9 °F 23.50 in WNW 2.2 mph -999.0 mph 29% 0 in
17:34 43.9 °F 13.7 °F 23.51 in Calm   -999.0 mph 29% 0 in
17:50 42.4 °F 13.1 °F 23.51 in Calm   -999.0 mph 30% 0 in
18:05 40.3 °F 14.8 °F 23.52 in Calm   -999.0 mph 35% 0 in
18:20 38.7 °F 14.6 °F 23.52 in Calm   -999.0 mph 37% 0 in
18:35 37.4 °F 14.1 °F 23.52 in Calm   -999.0 mph 38% 0 in
18:50 35.4 °F 17.2 °F 23.52 in Calm   -999.0 mph 47% 0 in
19:06 34.9 °F 17.7 °F 23.52 in Calm   -999.0 mph 49% 0 in
19:21 33.6 °F 19.6 °F 23.53 in Calm   -999.0 mph 56% 0 in
19:36 32.7 °F 16.1 °F 23.54 in Calm   -999.0 mph 50% 0 in
19:51 32.5 °F 16.8 °F 23.54 in Calm   -999.0 mph 52% 0 in
20:07 31.6 °F 17.3 °F 23.54 in Calm   -999.0 mph 55% 0 in
20:22 31.3 °F 17.0 °F 23.55 in Calm   -999.0 mph 55% 0 in
20:37 30.7 °F 19.6 °F 23.55 in Calm   -999.0 mph 63% 0 in
20:53 30.4 °F 17.8 °F 23.55 in Calm   -999.0 mph 59% 0 in
21:08 29.7 °F 15.5 °F 23.56 in Calm   -999.0 mph 55% 0 in
21:23 29.7 °F 16.7 °F 23.55 in Calm   -999.0 mph 58% 0 in
21:38 29.3 °F 17.9 °F 23.55 in Calm   -999.0 mph 62% 0 in
21:54 28.6 °F 18.0 °F 23.54 in Calm   -999.0 mph 64% 0 in
22:09 28.4 °F 19.2 °F 23.54 in Calm   -999.0 mph 68% 0 in
22:24 27.9 °F 18.7 °F 23.54 in Calm   -999.0 mph 68% 0 in
22:39 27.5 °F 18.0 °F 23.54 in Calm   -999.0 mph 67% 0 in
22:54 27.3 °F 16.7 °F 23.54 in Calm   -999.0 mph 64% 0 in
23:10 26.6 °F 16.8 °F 23.55 in Calm   -999.0 mph 66% 0 in
23:25 27.0 °F 17.2 °F 23.54 in Calm   -999.0 mph 66% 0 in
23:40 26.6 °F 17.8 °F 23.54 in Calm   -999.0 mph 69% 0 in
23:55 26.2 °F 18.4 °F 23.54 in Calm   -999.0 mph 72% 0 in
Big Bear CA Weather